Terminal Aerodrome Forecast
Issued by NWS

Home | Current Version | Previous Version | Text Only | Print | Product List | Glossary On
Versions: 1 2 3 4 5 6 7 8 9 10 11 12 13 14 15 16 17 18 19 20 21 22 23 24 25 26 27 28 29 30 31 32 33 34 35 36 37 38 39 40 41 42 43 44 45 46 47 48 49 50
000
FTAK31 PAFA 011249 AAB
TAFASC
TAF AMD
PASC 011249Z 0113/0212 25025G40KT 1/4SM SN BLSN VV006
     FM011500 25025G35KT 1/2SM BLSN VCSH OVC008
     FM011800 24020G30KT 1SM BLSN BKN015
     FM020000 24020KT 6SM BLSN BR SCT015 BKN250=

USA.gov is the U.S. government's official web portal to all federal, state and local government web resources and services.